Time;durP1;ratioP1;P1;durP2;ratioP2;P2;SDS_P1;SDS_P2;PMS_P1;PMS_P2;Temp;Humidity;BMP_temperature;BMP_pressure;BME280_temperature;BME280_humidity;BME280_pressure;Samples;Min_cycle;Max_cycle;Signal;HPM_P1;HPM_P2
2024/01/16 00:02:18;;;;;;;2.50;1.60;;;-3.70;99.90;-4.70;98151;;;;568572;248;24136;-77
2024/01/16 00:04:46;;;;;;;1.13;1.00;;;-3.70;99.90;-4.70;98147;;;;568595;248;24118;-81
2024/01/16 00:07:14;;;;;;;1.40;1.30;;;-3.60;99.90;-4.70;98155;;;;568526;248;24144;-80
2024/01/16 00:09:42;;;;;;;2.50;1.37;;;-3.60;99.90;-4.70;98153;;;;577009;248;24130;-79
2024/01/16 00:12:13;;;;;;;4.33;1.50;;;-3.60;99.90;-4.70;98168;;;;568267;248;24089;-77
2024/01/16 00:14:41;;;;;;;5.17;2.90;;;-3.60;99.90;-4.70;98181;;;;576478;248;24072;-78
2024/01/16 00:17:10;;;;;;;9.30;4.20;;;-3.60;99.90;-4.70;98190;;;;568087;248;25164;-76
2024/01/16 00:19:34;;;;;;;5.60;2.93;;;-3.60;99.90;-4.70;98196;;;;568169;248;24098;-78
2024/01/16 00:22:03;;;;;;;2.50;1.23;;;-3.50;99.90;-4.70;98199;;;;568661;247;24080;-77
2024/01/16 00:24:32;;;;;;;1.97;1.33;;;-3.50;99.90;-4.70;98194;;;;569765;248;24113;-77
2024/01/16 00:27:00;;;;;;;4.57;2.30;;;-3.50;99.90;-4.70;98205;;;;569387;248;24095;-75
2024/01/16 00:29:31;;;;;;;1.57;1.47;;;-3.60;99.90;-4.70;98212;;;;568596;248;24087;-78
2024/01/16 00:32:00;;;;;;;2.07;1.10;;;-3.50;99.90;-4.70;98209;;;;568517;248;24113;-77
2024/01/16 00:34:25;;;;;;;1.97;1.40;;;-3.60;99.90;-4.70;98208;;;;568700;248;24214;-77
2024/01/16 00:36:53;;;;;;;3.30;1.43;;;-3.60;99.90;-4.70;98218;;;;568784;248;25350;-79
2024/01/16 00:39:21;;;;;;;3.60;1.33;;;-3.60;99.90;-4.70;98229;;;;568867;248;24096;-78
2024/01/16 00:41:48;;;;;;;1.87;1.37;;;-3.60;99.90;-4.70;98234;;;;568885;248;24090;-77
2024/01/16 00:44:16;;;;;;;3.87;1.33;;;-3.60;99.90;-4.80;98234;;;;568907;248;24088;-78
2024/01/16 00:46:45;;;;;;;3.60;1.40;;;-3.60;99.90;-4.80;98223;;;;563544;248;35240;-78
2024/01/16 00:49:14;;;;;;;1.23;1.13;;;-3.70;99.90;-4.80;98237;;;;568968;248;24073;-79
2024/01/16 00:51:42;;;;;;;4.70;2.00;;;-3.70;99.90;-4.80;98245;;;;569002;248;24090;-78
2024/01/16 00:54:10;;;;;;;1.50;0.93;;;-3.70;99.90;-4.90;98241;;;;569053;248;24110;-78
2024/01/16 00:56:40;;;;;;;4.10;0.90;;;-3.70;99.90;-4.90;98235;;;;568654;248;24248;-79
2024/01/16 00:59:08;;;;;;;1.97;1.00;;;-3.70;99.90;-5.00;98229;;;;568493;248;24171;-79
2024/01/16 01:01:42;;;;;;;1.60;0.90;;;-3.80;99.90;-5.00;98236;;;;570861;248;24132;-79
2024/01/16 01:04:07;;;;;;;1.40;1.00;;;-3.80;99.90;-5.00;98246;;;;576657;248;24167;-79
2024/01/16 01:06:38;;;;;;;0.82;0.82;;;-3.80;99.90;-5.00;98254;;;;563235;248;35221;-79
2024/01/16 01:09:04;;;;;;;2.87;1.10;;;-3.90;99.90;-5.00;98245;;;;576833;248;24102;-78
2024/01/16 01:11:33;;;;;;;2.50;1.00;;;-3.90;99.90;-5.00;98250;;;;568596;248;24193;-79
2024/01/16 01:14:00;;;;;;;2.10;0.80;;;-3.90;99.90;-5.10;98261;;;;568619;248;24198;-79
2024/01/16 01:16:28;;;;;;;0.90;0.90;;;-3.90;99.90;-5.10;98262;;;;568631;248;24094;-79
2024/01/16 01:18:56;;;;;;;1.30;0.80;;;-4.00;99.90;-5.20;98261;;;;568574;248;24134;-79
2024/01/16 01:21:25;;;;;;;2.72;1.30;;;-4.00;99.90;-5.20;98270;;;;563624;248;35226;-79
2024/01/16 01:23:56;;;;;;;1.40;0.70;;;-4.10;99.90;-5.30;98267;;;;568570;248;25145;-78
2024/01/16 01:26:21;;;;;;;1.27;1.00;;;-4.10;99.90;-5.30;98264;;;;567898;248;24148;-78
2024/01/16 01:28:52;;;;;;;1.97;0.90;;;-4.10;99.90;-5.40;98280;;;;568276;248;24116;-77
2024/01/16 01:31:17;;;;;;;0.67;0.60;;;-4.20;99.90;-5.40;98288;;;;570631;248;24142;-78
2024/01/16 01:33:45;;;;;;;1.30;1.20;;;-4.20;99.90;-5.50;98289;;;;568757;248;24088;-77
2024/01/16 01:36:13;;;;;;;0.73;0.73;;;-4.30;99.90;-5.50;98280;;;;569442;248;24084;-78
2024/01/16 01:38:40;;;;;;;2.17;0.90;;;-4.30;99.90;-5.60;98293;;;;569294;248;24080;-78
2024/01/16 01:41:11;;;;;;;2.63;1.10;;;-4.30;99.90;-5.50;98299;;;;571779;248;24087;-78
2024/01/16 01:43:36;;;;;;;0.97;0.97;;;-4.30;99.90;-5.50;98303;;;;569071;248;24137;-78
2024/01/16 01:46:04;;;;;;;2.13;1.07;;;-4.30;99.90;-5.50;98314;;;;569144;248;24095;-78
2024/01/16 01:48:35;;;;;;;2.43;1.50;;;-4.30;99.90;-5.50;98312;;;;569078;248;24093;-79
2024/01/16 01:51:00;;;;;;;3.20;1.27;;;-4.40;99.90;-5.60;98309;;;;571062;248;24087;-77
2024/01/16 01:53:28;;;;;;;2.20;1.27;;;-4.40;99.90;-5.70;98305;;;;577516;248;24106;-76
2024/01/16 01:55:57;;;;;;;1.47;1.07;;;-4.50;99.90;-5.70;98321;;;;568823;248;24118;-76
2024/01/16 01:58:25;;;;;;;1.03;0.93;;;-4.40;99.90;-5.80;98314;;;;568526;248;24099;-80
2024/01/16 02:00:53;;;;;;;0.93;0.90;;;-4.60;99.90;-5.90;98326;;;;568421;248;24078;-78
2024/01/16 02:03:21;;;;;;;1.37;1.27;;;-4.60;99.90;-6.00;98321;;;;568536;248;24113;-76
2024/01/16 02:05:50;;;;;;;2.80;0.90;;;-4.80;99.90;-6.00;98335;;;;570739;248;24107;-77
2024/01/16 02:08:18;;;;;;;1.73;1.10;;;-4.80;99.90;-6.10;98330;;;;571297;248;24095;-77
2024/01/16 02:10:46;;;;;;;2.67;0.87;;;-4.80;99.90;-6.10;98334;;;;568305;248;24095;-77
2024/01/16 02:13:13;;;;;;;1.80;1.27;;;-4.90;99.90;-6.20;98335;;;;568460;248;25118;-77
2024/01/16 02:15:42;;;;;;;3.27;1.57;;;-5.00;99.90;-6.20;98340;;;;568572;248;24159;-75
2024/01/16 02:18:10;;;;;;;3.17;1.30;;;-5.00;99.90;-6.30;98346;;;;568501;248;24131;-77
2024/01/16 02:20:38;;;;;;;1.53;1.10;;;-5.10;99.90;-6.30;98341;;;;568480;248;25136;-77
2024/01/16 02:23:06;;;;;;;4.00;1.20;;;-5.10;99.90;-6.30;98351;;;;568094;248;24077;-77
2024/01/16 02:25:34;;;;;;;2.00;1.00;;;-5.10;99.90;-6.40;98363;;;;568610;248;25196;-78
2024/01/16 02:28:06;;;;;;;0.90;0.70;;;-5.20;99.90;-6.50;98363;;;;568066;248;24152;-78
2024/01/16 02:30:30;;;;;;;2.80;0.90;;;-5.20;99.90;-6.50;98367;;;;568008;248;24123;-76
2024/01/16 02:32:58;;;;;;;2.03;1.30;;;-5.30;99.90;-6.50;98358;;;;568349;248;24140;-77
2024/01/16 02:35:26;;;;;;;0.77;0.70;;;-5.30;99.90;-6.50;98365;;;;568226;248;24130;-77
2024/01/16 02:37:54;;;;;;;1.17;1.00;;;-5.30;99.90;-6.50;98371;;;;568364;248;24185;-76
2024/01/16 02:40:22;;;;;;;3.53;2.23;;;-5.30;99.90;-6.50;98375;;;;568211;248;24092;-77
2024/01/16 02:42:50;;;;;;;2.90;1.93;;;-5.30;99.90;-6.50;98390;;;;568125;248;24174;-77
2024/01/16 02:45:18;;;;;;;2.90;1.80;;;-5.30;99.90;-6.60;98389;;;;568979;247;24150;-77
2024/01/16 02:47:46;;;;;;;1.20;1.00;;;-5.40;99.90;-6.60;98388;;;;569959;248;24151;-76
2024/01/16 02:50:14;;;;;;;1.30;1.20;;;-5.40;99.90;-6.70;98393;;;;569555;248;24106;-77
2024/01/16 02:52:42;;;;;;;1.87;0.87;;;-5.40;99.90;-6.70;98408;;;;569315;248;24079;-78
2024/01/16 02:55:09;;;;;;;0.90;0.90;;;-5.50;99.90;-6.80;98411;;;;569269;248;24173;-77
2024/01/16 02:57:37;;;;;;;1.60;1.10;;;-5.50;99.90;-6.80;98419;;;;568768;248;24120;-77
2024/01/16 03:00:07;;;;;;;1.00;0.90;;;-5.70;99.90;-6.90;98419;;;;568636;248;25214;-77
2024/01/16 03:02:34;;;;;;;1.73;1.00;;;-5.70;99.90;-7.00;98422;;;;577292;248;24102;-77
2024/01/16 03:05:07;;;;;;;0.83;0.70;;;-5.70;99.90;-7.00;98429;;;;568558;248;24142;-78
2024/01/16 03:07:35;;;;;;;1.10;1.00;;;-5.80;99.90;-7.10;98431;;;;568637;248;24080;-75
2024/01/16 03:10:03;;;;;;;0.70;0.70;;;-5.80;99.90;-7.10;98441;;;;568556;248;24157;-76
2024/01/16 03:12:31;;;;;;;1.10;1.00;;;-5.90;99.90;-7.10;98428;;;;571346;248;24119;-78
2024/01/16 03:15:00;;;;;;;1.97;1.40;;;-5.90;99.90;-7.10;98433;;;;568911;248;24083;-79
2024/01/16 03:17:28;;;;;;;1.20;0.90;;;-5.90;99.90;-7.10;98435;;;;568875;248;24144;-78
2024/01/16 03:19:56;;;;;;;0.97;0.90;;;-5.90;99.90;-7.20;98441;;;;568879;248;24071;-79
2024/01/16 03:22:24;;;;;;;0.70;0.70;;;-6.00;99.90;-7.20;98439;;;;568570;248;24159;-78
2024/01/16 03:24:51;;;;;;;0.83;0.70;;;-6.00;99.90;-7.30;98446;;;;568612;248;24164;-78
2024/01/16 03:27:19;;;;;;;0.93;0.90;;;-6.00;99.90;-7.30;98449;;;;568355;248;24142;-78
2024/01/16 03:29:48;;;;;;;0.80;0.70;;;-6.10;99.90;-7.40;98439;;;;568133;248;25118;-77
2024/01/16 03:32:16;;;;;;;0.77;0.73;;;-6.10;99.90;-7.40;98447;;;;568275;248;25109;-78
2024/01/16 03:34:44;;;;;;;0.77;0.77;;;-6.10;99.90;-7.50;98441;;;;568295;248;24088;-78
2024/01/16 03:37:12;;;;;;;2.80;1.10;;;-6.20;99.90;-7.50;98446;;;;568448;248;24162;-78
2024/01/16 03:39:41;;;;;;;1.20;1.10;;;-6.20;99.90;-7.50;98448;;;;568233;248;24086;-78
2024/01/16 03:42:09;;;;;;;1.40;1.30;;;-6.20;99.90;-7.50;98448;;;;568326;248;24139;-76
2024/01/16 03:44:37;;;;;;;1.97;1.30;;;-6.30;99.90;-7.50;98456;;;;568233;248;24103;-78
2024/01/16 03:47:05;;;;;;;1.73;1.40;;;-6.30;99.90;-7.60;98451;;;;568563;248;24119;-77
2024/01/16 03:49:36;;;;;;;0.73;0.67;;;-6.30;99.90;-7.60;98469;;;;568621;248;24126;-77
2024/01/16 03:52:01;;;;;;;0.63;0.60;;;-6.30;99.90;-7.60;98457;;;;568226;248;24149;-77
2024/01/16 03:54:29;;;;;;;1.40;0.97;;;-6.40;99.90;-7.70;98463;;;;568584;248;25155;-78
2024/01/16 03:56:57;;;;;;;0.80;0.80;;;-6.40;99.90;-7.70;98464;;;;569065;248;24160;-79
2024/01/16 03:59:25;;;;;;;1.70;0.70;;;-6.40;99.90;-7.70;98464;;;;569861;248;24078;-76
2024/01/16 04:01:53;;;;;;;2.43;1.40;;;-6.40;99.90;-7.70;98471;;;;569240;248;24166;-77
2024/01/16 04:04:22;;;;;;;1.33;1.13;;;-6.40;99.90;-7.70;98474;;;;569017;248;24090;-78
2024/01/16 04:06:52;;;;;;;0.73;0.73;;;-6.40;99.90;-7.70;98473;;;;569242;248;24119;-78
2024/01/16 04:09:17;;;;;;;2.00;1.33;;;-6.40;99.90;-7.70;98466;;;;569194;248;24122;-75
2024/01/16 04:11:45;;;;;;;1.43;1.00;;;-6.50;99.90;-7.70;98478;;;;569009;248;24111;-76
2024/01/16 04:14:13;;;;;;;0.87;0.87;;;-6.40;99.90;-7.80;98484;;;;568893;248;24128;-77
2024/01/16 04:16:41;;;;;;;1.50;1.40;;;-6.50;99.90;-7.80;98489;;;;568867;248;24109;-76
2024/01/16 04:19:08;;;;;;;1.63;1.53;;;-6.50;99.90;-7.80;98481;;;;569113;248;26262;-77
2024/01/16 04:21:36;;;;;;;1.10;1.00;;;-6.50;99.90;-7.90;98487;;;;568932;248;24130;-77
2024/01/16 04:24:04;;;;;;;1.20;0.90;;;-6.50;99.90;-7.90;98494;;;;568792;248;24115;-78
2024/01/16 04:26:32;;;;;;;1.20;1.10;;;-6.60;99.90;-7.90;98496;;;;568753;248;24104;-77
2024/01/16 04:29:00;;;;;;;1.10;0.93;;;-6.60;99.90;-7.90;98504;;;;568860;248;24095;-77
2024/01/16 04:31:31;;;;;;;1.67;1.10;;;-6.60;99.90;-8.00;98501;;;;568864;248;24133;-78
2024/01/16 04:33:56;;;;;;;1.43;0.70;;;-6.70;99.90;-8.00;98508;;;;568424;248;24098;-78
2024/01/16 04:36:24;;;;;;;2.10;1.80;;;-6.70;99.90;-8.00;98518;;;;568679;248;24124;-77
2024/01/16 04:38:52;;;;;;;1.60;1.17;;;-6.70;99.90;-8.00;98528;;;;568571;248;24117;-77
2024/01/16 04:41:20;;;;;;;3.23;1.70;;;-6.70;99.90;-7.90;98529;;;;568626;248;24106;-76
2024/01/16 04:43:49;;;;;;;2.23;1.63;;;-6.70;99.90;-7.90;98540;;;;568581;248;24136;-76
2024/01/16 04:46:18;;;;;;;2.40;1.17;;;-6.60;99.90;-7.90;98539;;;;577121;248;24168;-77
2024/01/16 04:48:43;;;;;;;1.37;1.10;;;-6.60;99.90;-7.90;98534;;;;568003;248;24092;-78
2024/01/16 04:51:11;;;;;;;1.50;1.33;;;-6.60;99.90;-7.90;98534;;;;568190;248;24092;-76
2024/01/16 04:53:40;;;;;;;1.10;0.80;;;-6.60;99.90;-7.90;98536;;;;568356;248;24131;-77
2024/01/16 04:56:10;;;;;;;0.87;0.87;;;-6.60;99.90;-7.90;98538;;;;568205;248;24138;-77
2024/01/16 04:58:35;;;;;;;1.83;1.33;;;-6.60;99.90;-7.80;98543;;;;571180;248;24164;-77
2024/01/16 05:01:04;;;;;;;1.63;1.37;;;-6.60;99.90;-7.80;98558;;;;568570;248;24111;-75
2024/01/16 05:03:32;;;;;;;2.23;1.73;;;-6.60;99.90;-7.70;98565;;;;568624;248;24085;-77
2024/01/16 05:06:00;;;;;;;1.83;1.67;;;-6.50;99.90;-7.70;98557;;;;568628;248;24129;-77
2024/01/16 05:08:28;;;;;;;2.17;1.80;;;-6.40;99.90;-7.60;98564;;;;568869;247;24101;-76
2024/01/16 05:10:56;;;;;;;2.17;1.60;;;-6.40;99.90;-7.60;98557;;;;569866;248;24093;-76
2024/01/16 05:13:24;;;;;;;1.13;1.13;;;-6.40;99.90;-7.60;98566;;;;569478;248;24119;-77
2024/01/16 05:15:52;;;;;;;1.33;1.10;;;-6.30;99.90;-7.60;98569;;;;569309;248;24098;-78
2024/01/16 05:18:23;;;;;;;2.23;1.13;;;-6.40;99.90;-7.70;98566;;;;568934;248;24125;-77
2024/01/16 05:20:48;;;;;;;1.47;1.00;;;-6.40;99.90;-7.70;98581;;;;568541;248;25188;-79
2024/01/16 05:23:16;;;;;;;1.33;1.20;;;-6.40;99.90;-7.70;98567;;;;568850;248;24169;-76
2024/01/16 05:25:44;;;;;;;2.13;1.30;;;-6.50;99.90;-7.80;98569;;;;568772;248;24082;-76
2024/01/16 05:28:12;;;;;;;1.50;1.40;;;-6.50;99.90;-7.80;98565;;;;568380;248;24127;-78
2024/01/16 05:30:39;;;;;;;1.50;1.40;;;-6.50;99.90;-7.80;98566;;;;568522;248;24140;-77
2024/01/16 05:33:07;;;;;;;1.80;1.30;;;-6.50;99.90;-7.80;98576;;;;568423;248;24131;-77
2024/01/16 05:35:35;;;;;;;1.97;1.20;;;-6.50;99.90;-7.80;98573;;;;568543;248;24134;-80
2024/01/16 05:38:04;;;;;;;1.90;1.10;;;-6.50;99.90;-7.80;98580;;;;568549;248;24111;-77
2024/01/16 05:40:33;;;;;;;5.53;1.30;;;-6.50;99.90;-7.70;98589;;;;568648;248;24129;-78
2024/01/16 05:43:01;;;;;;;2.63;1.70;;;-6.50;99.90;-7.70;98586;;;;568471;248;24074;-79
2024/01/16 05:45:28;;;;;;;1.90;1.50;;;-6.50;99.90;-7.70;98593;;;;568285;248;24095;-78
2024/01/16 05:47:56;;;;;;;2.13;1.30;;;-6.50;99.90;-7.70;98597;;;;568322;248;24080;-78
2024/01/16 05:50:25;;;;;;;1.23;1.07;;;-6.50;99.90;-7.70;98586;;;;568571;248;25188;-78
2024/01/16 05:52:53;;;;;;;1.90;1.10;;;-6.50;99.90;-7.70;98590;;;;568610;248;24126;-78
2024/01/16 05:55:21;;;;;;;2.03;1.03;;;-6.50;99.90;-7.60;98596;;;;568576;248;25121;-78
2024/01/16 05:57:49;;;;;;;1.83;1.30;;;-6.40;99.90;-7.60;98596;;;;568609;248;24217;-78
2024/01/16 06:00:21;;;;;;;2.10;1.40;;;-6.30;99.90;-7.50;98597;;;;568297;248;24084;-76
2024/01/16 06:02:45;;;;;;;1.10;1.00;;;-6.40;99.90;-7.50;98598;;;;568161;248;24105;-77
2024/01/16 06:05:14;;;;;;;2.23;1.50;;;-6.30;99.90;-7.60;98596;;;;568279;248;24080;-77
2024/01/16 06:07:45;;;;;;;2.63;1.37;;;-6.30;99.90;-7.60;98600;;;;568148;248;24139;-77
2024/01/16 06:10:10;;;;;;;1.33;1.27;;;-6.30;99.90;-7.60;98615;;;;576594;248;24165;-78
2024/01/16 06:12:38;;;;;;;1.40;1.10;;;-6.40;99.90;-7.60;98621;;;;576747;248;24095;-78
2024/01/16 06:15:06;;;;;;;2.17;1.37;;;-6.40;99.90;-7.60;98628;;;;568173;248;24167;-79
2024/01/16 06:17:37;;;;;;;3.43;1.30;;;-6.40;99.90;-7.60;98623;;;;568265;248;24156;-76
2024/01/16 06:20:02;;;;;;;1.50;1.40;;;-6.40;99.90;-7.60;98634;;;;568812;247;24118;-78
2024/01/16 06:22:30;;;;;;;2.87;1.53;;;-6.40;99.90;-7.50;98636;;;;569724;248;24117;-78
2024/01/16 06:24:58;;;;;;;4.63;1.63;;;-6.30;99.90;-7.50;98638;;;;569514;248;25109;-77
2024/01/16 06:27:26;;;;;;;4.87;1.97;;;-6.30;99.90;-7.50;98650;;;;569076;248;24166;-76
2024/01/16 06:29:54;;;;;;;5.87;2.93;;;-6.30;99.90;-7.40;98650;;;;569254;248;24118;-77
2024/01/16 06:32:22;;;;;;;16.67;7.00;;;-6.20;99.90;-7.50;98654;;;;569118;248;24127;-77
2024/01/16 06:34:50;;;;;;;41.33;10.90;;;-6.20;99.90;-7.50;98666;;;;569122;248;24099;-78
2024/01/16 06:37:18;;;;;;;23.83;7.57;;;-6.20;99.90;-7.50;98657;;;;569045;248;24109;-78
2024/01/16 06:39:47;;;;;;;48.20;13.20;;;-6.30;99.90;-7.60;98661;;;;563935;248;35309;-78
2024/01/16 06:42:14;;;;;;;27.30;8.83;;;-6.30;99.90;-7.50;98661;;;;568844;248;24134;-78
2024/01/16 06:44:42;;;;;;;29.13;8.03;;;-6.30;99.90;-7.50;98662;;;;568804;248;24122;-76
2024/01/16 06:47:11;;;;;;;27.60;8.53;;;-6.20;99.90;-7.50;98679;;;;568931;248;24086;-75
2024/01/16 06:49:39;;;;;;;29.93;9.07;;;-6.30;99.90;-7.40;98679;;;;568823;248;24090;-77
2024/01/16 06:52:10;;;;;;;29.83;9.53;;;-6.20;99.90;-7.40;98686;;;;568486;248;24104;-79
2024/01/16 06:54:35;;;;;;;25.10;9.40;;;-6.20;99.90;-7.40;98678;;;;568105;248;24172;-78
2024/01/16 06:57:03;;;;;;;35.53;12.00;;;-6.20;99.90;-7.40;98679;;;;568673;248;24109;-78
2024/01/16 06:59:31;;;;;;;39.43;11.53;;;-6.10;99.90;-7.40;98689;;;;568517;248;25150;-78
2024/01/16 07:02:00;;;;;;;20.67;8.37;;;-6.10;99.90;-7.40;98690;;;;568609;248;24139;-74
2024/01/16 07:04:29;;;;;;;17.67;6.33;;;-6.10;99.90;-7.40;98698;;;;568599;248;25136;-77
2024/01/16 07:06:57;;;;;;;8.40;3.70;;;-6.20;99.90;-7.40;98696;;;;568619;248;24081;-77
2024/01/16 07:09:25;;;;;;;5.63;2.73;;;-6.20;99.90;-7.40;98714;;;;568155;248;24089;-77
2024/01/16 07:11:53;;;;;;;8.33;3.13;;;-6.20;99.90;-7.40;98721;;;;568599;248;24168;-78
2024/01/16 07:14:21;;;;;;;8.03;3.27;;;-6.20;99.90;-7.40;98714;;;;568551;248;24145;-80
2024/01/16 07:16:50;;;;;;;8.93;3.77;;;-6.20;99.90;-7.40;98712;;;;568550;248;25146;-77
2024/01/16 07:19:19;;;;;;;6.93;3.10;;;-6.20;99.90;-7.40;98717;;;;568532;248;24135;-77
2024/01/16 07:21:46;;;;;;;6.30;3.20;;;-6.20;99.90;-7.40;98726;;;;568257;248;24130;-78
2024/01/16 07:24:14;;;;;;;6.50;2.70;;;-6.20;99.90;-7.50;98727;;;;568201;248;24083;-77
2024/01/16 07:26:42;;;;;;;6.80;2.67;;;-6.20;99.90;-7.50;98739;;;;568250;248;24123;-77
2024/01/16 07:29:11;;;;;;;5.47;2.50;;;-6.20;99.90;-7.50;98727;;;;568316;248;25128;-79
2024/01/16 07:31:39;;;;;;;7.47;3.33;;;-6.20;99.90;-7.50;98747;;;;568888;247;24154;-78
2024/01/16 07:34:07;;;;;;;5.87;3.07;;;-6.20;99.90;-7.50;98737;;;;569876;248;24161;-77
2024/01/16 07:36:35;;;;;;;9.70;4.20;;;-6.20;99.90;-7.50;98735;;;;569112;248;24098;-78
2024/01/16 07:39:03;;;;;;;8.50;3.60;;;-6.30;99.90;-7.50;98748;;;;569069;248;24153;-77
2024/01/16 07:41:34;;;;;;;4.73;2.70;;;-6.30;99.90;-7.50;98758;;;;568790;248;24090;-78
2024/01/16 07:43:59;;;;;;;4.13;2.43;;;-6.30;99.90;-7.60;98761;;;;571171;248;24112;-78
2024/01/16 07:46:28;;;;;;;10.20;3.93;;;-6.30;99.90;-7.50;98754;;;;568758;248;24140;-79
2024/01/16 07:48:55;;;;;;;5.27;2.80;;;-6.30;99.90;-7.50;98756;;;;568633;248;25126;-78
2024/01/16 07:51:23;;;;;;;4.53;3.23;;;-6.30;99.90;-7.50;98763;;;;568599;248;24127;-79
2024/01/16 07:53:54;;;;;;;12.47;4.50;;;-6.30;99.90;-7.50;98772;;;;568912;248;24113;-78
2024/01/16 07:56:21;;;;;;;14.67;6.23;;;-6.30;99.90;-7.50;98781;;;;568792;248;24083;-77
2024/01/16 07:58:49;;;;;;;8.43;3.60;;;-6.30;99.90;-7.40;98776;;;;568864;248;24099;-77
2024/01/16 08:01:18;;;;;;;12.30;4.53;;;-6.20;99.90;-7.50;98775;;;;568929;248;24162;-77
2024/01/16 08:03:47;;;;;;;5.30;3.60;;;-6.20;99.90;-7.40;98782;;;;568561;248;24090;-76
2024/01/16 08:06:15;;;;;;;6.40;3.33;;;-6.20;99.90;-7.40;98780;;;;568351;248;24108;-78
2024/01/16 08:08:42;;;;;;;8.43;3.70;;;-6.20;99.90;-7.40;98780;;;;568393;248;24139;-77
2024/01/16 08:11:10;;;;;;;5.07;3.00;;;-6.20;99.90;-7.40;98786;;;;568251;248;24068;-77
2024/01/16 08:13:38;;;;;;;5.40;3.13;;;-6.10;99.90;-7.40;98802;;;;568312;248;24113;-79
2024/01/16 08:16:06;;;;;;;6.57;3.70;;;-6.10;99.90;-7.40;98805;;;;568189;248;24135;-77
2024/01/16 08:18:38;;;;;;;5.10;3.07;;;-6.10;99.90;-7.30;98805;;;;568163;248;24146;-76
2024/01/16 08:21:02;;;;;;;15.23;7.23;;;-6.10;99.90;-7.30;98809;;;;568040;248;24091;-77
2024/01/16 08:23:30;;;;;;;21.50;8.60;;;-6.10;99.90;-7.30;98818;;;;568168;248;24150;-78
2024/01/16 08:25:59;;;;;;;14.57;6.37;;;-6.10;99.90;-7.30;98826;;;;568383;244;24094;-76
2024/01/16 08:28:27;;;;;;;6.43;3.33;;;-6.00;99.90;-7.20;98837;;;;568618;248;25139;-77
2024/01/16 08:30:58;;;;;;;6.63;3.80;;;-6.00;99.90;-7.20;98830;;;;568581;248;24127;-78
2024/01/16 08:33:23;;;;;;;6.43;3.50;;;-6.00;99.90;-7.20;98843;;;;576622;248;24077;-78
2024/01/16 08:35:51;;;;;;;4.43;3.03;;;-6.00;99.90;-7.20;98848;;;;568251;248;25137;-79
2024/01/16 08:38:19;;;;;;;7.87;3.80;;;-6.00;99.90;-7.10;98859;;;;568330;248;24111;-78
2024/01/16 08:40:48;;;;;;;4.97;2.70;;;-6.00;99.90;-7.10;98855;;;;568277;248;24131;-80
2024/01/16 08:43:15;;;;;;;5.10;3.07;;;-5.90;99.90;-7.10;98864;;;;568740;247;24116;-77
2024/01/16 08:45:43;;;;;;;5.20;3.43;;;-5.90;99.90;-7.10;98871;;;;569504;248;24157;-79
2024/01/16 08:48:14;;;;;;;7.37;3.70;;;-5.80;99.90;-7.00;98867;;;;569128;248;24114;-80
2024/01/16 08:50:40;;;;;;;4.83;3.00;;;-5.80;99.90;-7.00;98872;;;;568706;248;24119;-79
2024/01/16 08:53:07;;;;;;;5.57;3.23;;;-5.80;99.90;-6.90;98873;;;;568772;248;24101;-78
2024/01/16 08:55:35;;;;;;;3.33;2.60;;;-5.80;99.90;-7.00;98884;;;;569117;248;24115;-78
2024/01/16 08:58:03;;;;;;;6.70;3.40;;;-5.70;99.90;-6.90;98868;;;;569091;248;24082;-77
2024/01/16 09:00:31;;;;;;;7.23;3.87;;;-5.70;99.90;-6.90;98881;;;;571886;248;24075;-78
2024/01/16 09:03:00;;;;;;;4.13;3.03;;;-5.60;99.90;-6.80;98881;;;;568867;248;24155;-77
2024/01/16 09:05:27;;;;;;;3.90;2.67;;;-5.70;99.90;-6.80;98888;;;;568335;248;24084;-76
2024/01/16 09:07:58;;;;;;;6.50;4.20;;;-5.60;99.90;-6.80;98885;;;;568606;248;24121;-77
2024/01/16 09:10:26;;;;;;;8.33;3.83;;;-5.60;99.90;-6.80;98897;;;;568470;248;24100;-77
2024/01/16 09:12:54;;;;;;;7.50;4.73;;;-5.60;99.90;-6.70;98897;;;;568605;248;24095;-78
2024/01/16 09:15:26;;;;;;;7.00;3.53;;;-5.50;99.90;-6.60;98903;;;;568462;248;24121;-78
2024/01/16 09:17:50;;;;;;;9.73;4.43;;;-5.50;99.90;-6.60;98911;;;;570937;248;27312;-78
2024/01/16 09:20:18;;;;;;;7.33;4.27;;;-5.40;99.90;-6.60;98897;;;;568385;248;24141;-77
2024/01/16 09:22:46;;;;;;;9.03;5.03;;;-5.40;99.90;-6.50;98910;;;;568120;248;24139;-79
2024/01/16 09:25:14;;;;;;;5.80;3.60;;;-5.30;99.90;-6.50;98911;;;;568725;248;24123;-77
2024/01/16 09:27:42;;;;;;;5.97;3.30;;;-5.30;99.90;-6.50;98917;;;;568249;248;24137;-77
2024/01/16 09:30:10;;;;;;;7.17;4.07;;;-5.30;99.90;-6.50;98920;;;;568639;248;26176;-78
2024/01/16 09:32:37;;;;;;;6.60;3.40;;;-5.30;99.90;-6.40;98917;;;;568223;248;24100;-78
2024/01/16 09:35:09;;;;;;;4.60;3.20;;;-5.20;99.90;-6.40;98922;;;;568583;248;25151;-78
2024/01/16 09:37:33;;;;;;;5.07;3.50;;;-5.20;99.90;-6.30;98920;;;;568606;248;25166;-77
2024/01/16 09:40:01;;;;;;;6.30;3.60;;;-5.20;99.90;-6.30;98926;;;;568553;248;24113;-79
2024/01/16 09:42:32;;;;;;;5.33;3.67;;;-5.10;99.90;-6.20;98929;;;;568569;248;24192;-78
2024/01/16 09:44:59;;;;;;;3.40;2.63;;;-5.00;99.90;-6.00;98936;;;;568607;248;24131;-77
2024/01/16 09:47:27;;;;;;;4.23;2.37;;;-4.80;99.90;-5.80;98949;;;;568498;248;24119;-78
2024/01/16 09:49:55;;;;;;;6.83;3.37;;;-4.60;99.90;-5.60;98944;;;;568601;248;24169;-78
2024/01/16 09:52:27;;;;;;;2.50;2.27;;;-4.40;99.90;-5.40;98944;;;;577111;248;24220;-77
2024/01/16 09:54:51;;;;;;;3.13;2.20;;;-4.20;99.90;-5.10;98952;;;;568661;247;24137;-78
2024/01/16 09:57:22;;;;;;;6.55;3.17;;;-3.90;99.90;-5.00;98961;;;;564686;248;35311;-79
2024/01/16 09:59:47;;;;;;;2.87;2.13;;;-3.80;99.90;-5.00;98959;;;;569260;248;24118;-78
2024/01/16 10:02:15;;;;;;;3.70;1.97;;;-3.80;99.90;-4.80;98974;;;;569099;248;24137;-79
2024/01/16 10:04:43;;;;;;;3.43;2.53;;;-3.70;99.90;-4.60;98976;;;;568829;248;24139;-77
2024/01/16 10:07:11;;;;;;;3.53;2.50;;;-3.40;99.90;-4.40;98971;;;;577748;248;24143;-79
2024/01/16 10:09:41;;;;;;;2.33;1.73;;;-3.10;99.90;-4.20;98977;;;;568932;248;24115;-78
2024/01/16 10:12:10;;;;;;;7.37;2.47;;;-3.00;99.90;-4.10;98968;;;;569110;248;24131;-77
2024/01/16 10:14:38;;;;;;;3.90;2.57;;;-2.80;99.90;-4.00;98974;;;;568724;248;24183;-77
2024/01/16 10:17:05;;;;;;;3.07;2.07;;;-2.70;99.90;-3.80;98978;;;;577419;248;24097;-77
2024/01/16 10:19:34;;;;;;;4.43;2.50;;;-2.40;99.90;-3.70;98986;;;;568790;248;26206;-76
2024/01/16 10:22:08;;;;;;;4.80;2.40;;;-2.40;99.90;-3.60;98990;;;;568779;248;24093;-77
2024/01/16 10:24:35;;;;;;;2.70;1.97;;;-2.30;99.90;-3.50;98985;;;;568764;248;24140;-77
2024/01/16 10:27:04;;;;;;;3.53;2.23;;;-2.20;99.90;-3.50;98986;;;;568242;248;24157;-77
2024/01/16 10:29:28;;;;;;;4.77;2.30;;;-2.20;99.90;-3.50;98997;;;;568285;248;24118;-76
2024/01/16 10:31:57;;;;;;;3.27;1.87;;;-2.20;99.90;-3.40;98985;;;;568254;248;24119;-77
2024/01/16 10:34:25;;;;;;;2.23;1.60;;;-2.10;99.90;-3.40;99003;;;;568098;248;25165;-77
2024/01/16 10:36:54;;;;;;;2.30;1.93;;;-2.00;99.90;-3.20;99001;;;;568562;248;25147;-77
2024/01/16 10:39:22;;;;;;;7.93;1.73;;;-2.00;99.90;-3.20;99001;;;;568178;248;24103;-78
2024/01/16 10:41:59;;;;;;;7.10;2.80;;;-1.90;99.90;-3.10;99011;;;;568499;248;24124;-77
2024/01/16 10:44:27;;;;;;;7.03;3.03;;;-1.90;99.90;-3.10;99017;;;;568564;248;24135;-77
2024/01/16 10:47:12;;;;;;;6.87;3.37;;;-1.90;99.90;-3.00;99016;;;;568400;248;24086;-78
2024/01/16 10:49:40;;;;;;;7.67;2.70;;;-1.80;99.90;-3.00;99026;;;;568034;248;24160;-77
2024/01/16 10:52:08;;;;;;;4.87;2.23;;;-1.80;99.90;-3.00;99026;;;;568550;248;24113;-78
2024/01/16 10:54:37;;;;;;;2.23;1.60;;;-1.80;99.90;-3.10;99031;;;;568491;248;24095;-79
2024/01/16 10:57:07;;;;;;;1.97;1.47;;;-1.80;99.90;-3.10;99029;;;;568359;248;24186;-77
2024/01/16 10:59:36;;;;;;;3.20;1.67;;;-1.90;99.90;-3.10;99033;;;;568022;248;24096;-78
2024/01/16 11:02:03;;;;;;;2.60;1.87;;;-1.90;99.90;-3.30;99030;;;;568370;248;24317;-78
2024/01/16 11:04:34;;;;;;;2.13;1.73;;;-2.00;99.90;-3.50;99039;;;;570129;248;24088;-78
2024/01/16 11:06:59;;;;;;;2.07;1.90;;;-2.20;99.90;-3.70;99022;;;;569152;248;25180;-78
2024/01/16 11:09:27;;;;;;;2.40;1.87;;;-2.30;99.90;-3.90;99031;;;;569713;248;24079;-79
2024/01/16 11:12:00;;;;;;;3.43;1.70;;;-2.70;99.90;-4.00;99030;;;;569409;248;24105;-80
2024/01/16 11:14:24;;;;;;;3.90;2.30;;;-2.70;99.90;-4.10;99035;;;;568700;248;24136;-78
2024/01/16 11:16:54;;;;;;;7.47;3.87;;;-2.90;99.90;-4.30;99048;;;;568995;248;25175;-80
2024/01/16 11:19:19;;;;;;;6.03;3.00;;;-3.00;99.90;-4.30;99051;;;;571502;248;24245;-76
2024/01/16 11:21:47;;;;;;;2.93;1.57;;;-3.10;99.90;-4.30;99049;;;;571637;248;24140;-79